Time;durP1;ratioP1;P1;durP2;ratioP2;P2;SDS_P1;SDS_P2;PMS_P1;PMS_P2;Temp;Humidity;BMP_temperature;BMP_pressure;BME280_temperature;BME280_humidity;BME280_pressure;Samples;Min_cycle;Max_cycle;Signal;HPM_P1;HPM_P2
2023/09/26 00:02:25;;;;;;;26.90;19.58;;;;;;;;;;5014777;28;20042;-74
2023/09/26 00:04:51;;;;;;;29.77;19.70;;;;;;;;;;5014803;28;20056;-73
2023/09/26 00:07:17;;;;;;;30.45;20.23;;;;;;;;;;5014728;28;20061;-74
2023/09/26 00:09:44;;;;;;;24.98;17.25;;;;;;;;;;5014947;28;20030;-73
2023/09/26 00:12:10;;;;;;;25.88;17.98;;;;;;;;;;5014647;28;20361;-74
2023/09/26 00:14:37;;;;;;;26.77;19.05;;;;;;;;;;5014612;28;20472;-74
2023/09/26 00:17:04;;;;;;;32.67;21.17;;;;;;;;;;5014574;28;20080;-74
2023/09/26 00:19:30;;;;;;;30.25;20.15;;;;;;;;;;5014845;28;20022;-74
2023/09/26 00:21:56;;;;;;;29.00;20.58;;;;;;;;;;5013055;28;20401;-74
2023/09/26 00:24:22;;;;;;;30.60;20.45;;;;;;;;;;5014429;28;20102;-74
2023/09/26 00:26:48;;;;;;;31.30;20.00;;;;;;;;;;5014347;28;20034;-74
2023/09/26 00:29:14;;;;;;;31.17;19.48;;;;;;;;;;5014469;28;20030;-73
2023/09/26 00:31:40;;;;;;;26.33;18.10;;;;;;;;;;5014243;28;20030;-74
2023/09/26 00:34:06;;;;;;;25.80;17.77;;;;;;;;;;5014216;28;20395;-73
2023/09/26 00:36:32;;;;;;;23.65;17.00;;;;;;;;;;5014189;28;20030;-73
2023/09/26 00:38:58;;;;;;;21.15;16.63;;;;;;;;;;5014194;28;20033;-73
2023/09/26 00:41:24;;;;;;;24.20;17.40;;;;;;;;;;5013853;28;20034;-74
2023/09/26 00:43:51;;;;;;;24.60;16.40;;;;;;;;;;5014271;28;20025;-74
2023/09/26 00:46:17;;;;;;;21.80;15.57;;;;;;;;;;5014459;28;20069;-73
2023/09/26 00:48:43;;;;;;;21.13;16.02;;;;;;;;;;5014142;28;20459;-74
2023/09/26 00:51:09;;;;;;;24.48;16.98;;;;;;;;;;5014172;28;20034;-74
2023/09/26 00:53:38;;;;;;;23.67;16.15;;;;;;;;;;5014075;28;20431;-74
2023/09/26 00:56:04;;;;;;;20.92;16.20;;;;;;;;;;5014300;28;20025;-73
2023/09/26 00:58:33;;;;;;;22.50;16.13;;;;;;;;;;5014142;28;20026;-74
2023/09/26 01:00:59;;;;;;;24.65;15.77;;;;;;;;;;5013698;28;20596;-74
2023/09/26 01:03:25;;;;;;;22.33;16.70;;;;;;;;;;5013995;28;20460;-74
2023/09/26 01:05:52;;;;;;;23.23;17.00;;;;;;;;;;5014074;28;20105;-74
2023/09/26 01:08:18;;;;;;;24.73;17.67;;;;;;;;;;5014184;28;20026;-73
2023/09/26 01:10:45;;;;;;;24.85;18.95;;;;;;;;;;5013816;28;20029;-74
2023/09/26 01:13:11;;;;;;;29.58;18.85;;;;;;;;;;5013945;28;20057;-74
2023/09/26 01:15:39;;;;;;;23.27;18.30;;;;;;;;;;5013673;28;20034;-74
2023/09/26 01:18:08;;;;;;;27.85;18.77;;;;;;;;;;5013439;28;20026;-74
2023/09/26 01:20:35;;;;;;;26.38;18.27;;;;;;;;;;5012387;28;20435;-74
2023/09/26 01:23:08;;;;;;;23.42;18.08;;;;;;;;;;5012666;28;20449;-74
2023/09/26 01:25:35;;;;;;;25.48;19.58;;;;;;;;;;5013339;28;20041;-74
2023/09/26 01:28:06;;;;;;;25.55;19.25;;;;;;;;;;5013222;28;20113;-74
2023/09/26 01:30:33;;;;;;;24.90;19.02;;;;;;;;;;5013542;28;20029;-73
2023/09/26 01:33:00;;;;;;;24.90;19.02;;;;;;;;;;5013167;28;20068;-73
2023/09/26 01:35:26;;;;;;;26.48;18.38;;;;;;;;;;5013174;28;20072;-73
2023/09/26 01:37:52;;;;;;;24.27;18.60;;;;;;;;;;5013326;28;20117;-74
2023/09/26 01:40:18;;;;;;;22.50;18.08;;;;;;;;;;5013302;28;20130;-74
2023/09/26 01:42:44;;;;;;;22.50;17.60;;;;;;;;;;5012937;28;20477;-74
2023/09/26 01:45:10;;;;;;;25.10;18.35;;;;;;;;;;5012973;28;20022;-73
2023/09/26 01:47:42;;;;;;;24.20;18.88;;;;;;;;;;5012906;28;20025;-74
2023/09/26 01:50:09;;;;;;;25.02;17.52;;;;;;;;;;5013398;28;20093;-73
2023/09/26 01:52:35;;;;;;;26.38;18.98;;;;;;;;;;5013004;28;20059;-74
2023/09/26 01:55:08;;;;;;;27.77;18.65;;;;;;;;;;5012903;28;20017;-74
2023/09/26 01:57:34;;;;;;;25.05;18.50;;;;;;;;;;4995079;28;20488;-74
2023/09/26 02:00:01;;;;;;;27.20;19.48;;;;;;;;;;4995361;28;20044;-74
2023/09/26 02:02:27;;;;;;;28.27;18.80;;;;;;;;;;5012723;28;20408;-74
2023/09/26 02:04:53;;;;;;;24.90;18.48;;;;;;;;;;5012721;28;20377;-74
2023/09/26 02:07:19;;;;;;;25.33;18.48;;;;;;;;;;5012732;28;20461;-73
2023/09/26 02:09:45;;;;;;;26.50;18.27;;;;;;;;;;5012714;28;20030;-74
2023/09/26 02:12:11;;;;;;;27.33;19.05;;;;;;;;;;5012692;28;20109;-74
2023/09/26 02:14:37;;;;;;;25.20;18.27;;;;;;;;;;5012706;28;20101;-74
2023/09/26 02:17:04;;;;;;;28.17;19.15;;;;;;;;;;5012606;28;20377;-73
2023/09/26 02:19:29;;;;;;;22.98;18.35;;;;;;;;;;4994931;28;20026;-74
2023/09/26 02:21:55;;;;;;;22.85;18.02;;;;;;;;;;5011785;28;20092;-74
2023/09/26 02:24:22;;;;;;;22.95;17.63;;;;;;;;;;5012538;28;20684;-74
2023/09/26 02:26:48;;;;;;;24.38;17.92;;;;;;;;;;5012821;28;20402;-74
2023/09/26 02:29:14;;;;;;;24.95;17.92;;;;;;;;;;5012413;28;20469;-74
2023/09/26 02:31:40;;;;;;;24.02;16.63;;;;;;;;;;5013521;28;20079;-73
2023/09/26 02:34:06;;;;;;;24.70;17.13;;;;;;;;;;5016586;28;20061;-74
2023/09/26 02:36:32;;;;;;;24.98;17.60;;;;;;;;;;5016362;28;20057;-73
2023/09/26 02:38:58;;;;;;;24.52;17.20;;;;;;;;;;5016303;28;20022;-74
2023/09/26 02:41:24;;;;;;;24.45;18.52;;;;;;;;;;5016247;28;20040;-74
2023/09/26 02:43:55;;;;;;;24.92;17.73;;;;;;;;;;5016248;28;20030;-74
2023/09/26 02:46:21;;;;;;;22.67;17.13;;;;;;;;;;5016363;28;20014;-73
2023/09/26 02:48:47;;;;;;;26.67;18.90;;;;;;;;;;5016192;28;20096;-74
2023/09/26 02:51:13;;;;;;;26.65;17.88;;;;;;;;;;5016114;28;20457;-74
2023/09/26 02:53:39;;;;;;;26.30;17.58;;;;;;;;;;5016035;28;20033;-74
2023/09/26 02:56:09;;;;;;;24.27;17.15;;;;;;;;;;5016025;28;20028;-73
2023/09/26 02:58:35;;;;;;;24.70;16.67;;;;;;;;;;5016106;28;20030;-73
2023/09/26 03:01:01;;;;;;;23.45;17.17;;;;;;;;;;5015894;28;20044;-74
2023/09/26 03:03:27;;;;;;;22.92;16.63;;;;;;;;;;5016031;28;20472;-73
2023/09/26 03:05:53;;;;;;;22.27;16.05;;;;;;;;;;4998278;28;20032;-73
2023/09/26 03:08:19;;;;;;;21.30;16.52;;;;;;;;;;5015889;28;20101;-74
2023/09/26 03:10:45;;;;;;;24.00;16.40;;;;;;;;;;5015865;28;20637;-74
2023/09/26 03:13:12;;;;;;;19.92;15.02;;;;;;;;;;5015741;28;20030;-74
2023/09/26 03:15:38;;;;;;;22.02;15.98;;;;;;;;;;5016033;28;20033;-74
2023/09/26 03:18:05;;;;;;;20.83;15.73;;;;;;;;;;5015583;28;20061;-73
2023/09/26 03:20:31;;;;;;;20.42;15.75;;;;;;;;;;5015644;28;20024;-74
2023/09/26 03:22:58;;;;;;;22.42;16.48;;;;;;;;;;5015053;28;20045;-74
2023/09/26 03:25:24;;;;;;;23.08;16.90;;;;;;;;;;5015449;28;20080;-74
2023/09/26 03:27:51;;;;;;;25.45;16.40;;;;;;;;;;5015454;28;20026;-74
2023/09/26 03:30:17;;;;;;;20.90;16.08;;;;;;;;;;5015461;28;20014;-73
2023/09/26 03:32:43;;;;;;;23.10;16.27;;;;;;;;;;5015315;28;20464;-74
2023/09/26 03:35:09;;;;;;;23.10;17.10;;;;;;;;;;5015228;28;20050;-73
2023/09/26 03:37:36;;;;;;;23.02;16.80;;;;;;;;;;5015289;28;20064;-73
2023/09/26 03:40:03;;;;;;;21.60;16.38;;;;;;;;;;5015214;28;20020;-74
2023/09/26 03:42:29;;;;;;;24.13;16.27;;;;;;;;;;5014646;28;20037;-74
2023/09/26 03:44:56;;;;;;;23.35;16.73;;;;;;;;;;5015680;28;20091;-73
2023/09/26 03:47:22;;;;;;;25.13;17.95;;;;;;;;;;5015220;28;20034;-73
2023/09/26 03:49:50;;;;;;;24.13;17.33;;;;;;;;;;5015345;28;20029;-74
2023/09/26 03:52:16;;;;;;;25.67;18.30;;;;;;;;;;5014988;28;20492;-73
2023/09/26 03:54:42;;;;;;;26.85;19.17;;;;;;;;;;5015005;28;20060;-73
2023/09/26 03:57:08;;;;;;;24.27;18.00;;;;;;;;;;5014919;28;20037;-74
2023/09/26 03:59:34;;;;;;;22.92;17.30;;;;;;;;;;5014988;28;20065;-73
2023/09/26 04:02:00;;;;;;;26.65;18.65;;;;;;;;;;5014706;28;20453;-74
2023/09/26 04:04:26;;;;;;;26.10;17.92;;;;;;;;;;5014831;28;20041;-73
2023/09/26 04:06:52;;;;;;;28.25;18.17;;;;;;;;;;5014760;28;20452;-74
2023/09/26 04:09:18;;;;;;;23.75;17.77;;;;;;;;;;4997069;28;20121;-73
2023/09/26 04:11:44;;;;;;;24.05;16.75;;;;;;;;;;5014636;28;20157;-73
2023/09/26 04:14:10;;;;;;;25.65;18.95;;;;;;;;;;5014624;28;20036;-73
2023/09/26 04:16:38;;;;;;;26.15;17.70;;;;;;;;;;5014535;28;20026;-73
2023/09/26 04:19:04;;;;;;;23.88;18.00;;;;;;;;;;5014789;28;20393;-73
2023/09/26 04:21:30;;;;;;;28.55;20.48;;;;;;;;;;5014440;28;20469;-74
2023/09/26 04:23:56;;;;;;;32.15;21.42;;;;;;;;;;5012844;28;20112;-74
2023/09/26 04:26:23;;;;;;;40.65;28.95;;;;;;;;;;5014474;28;20026;-73
2023/09/26 04:28:49;;;;;;;41.78;30.77;;;;;;;;;;5014392;28;20081;-73
2023/09/26 04:31:16;;;;;;;42.17;31.05;;;;;;;;;;5014260;28;20037;-73
2023/09/26 04:33:42;;;;;;;42.05;29.27;;;;;;;;;;5014354;28;20417;-73
2023/09/26 04:36:09;;;;;;;32.80;24.83;;;;;;;;;;5014739;28;20018;-73
2023/09/26 04:38:35;;;;;;;34.45;24.02;;;;;;;;;;5014475;28;20026;-73
2023/09/26 04:41:05;;;;;;;36.35;24.27;;;;;;;;;;5015007;28;20030;-74
2023/09/26 04:43:31;;;;;;;30.40;20.10;;;;;;;;;;5014343;28;20014;-73
2023/09/26 04:45:57;;;;;;;27.42;19.80;;;;;;;;;;5014084;28;20059;-73
2023/09/26 04:48:24;;;;;;;27.55;19.73;;;;;;;;;;5014107;28;20037;-73
2023/09/26 04:50:50;;;;;;;28.75;19.20;;;;;;;;;;5014871;28;20022;-73
2023/09/26 04:53:16;;;;;;;27.58;19.45;;;;;;;;;;5014836;28;20035;-73
2023/09/26 04:55:42;;;;;;;29.10;19.85;;;;;;;;;;5013597;28;20022;-73
2023/09/26 04:58:09;;;;;;;27.35;20.25;;;;;;;;;;5013987;28;20030;-73
2023/09/26 05:00:36;;;;;;;26.05;18.73;;;;;;;;;;5014010;28;20072;-73
2023/09/26 05:03:02;;;;;;;26.27;17.70;;;;;;;;;;5013981;28;20030;-73
2023/09/26 05:05:28;;;;;;;25.17;18.60;;;;;;;;;;5013609;28;20025;-73
2023/09/26 05:07:55;;;;;;;22.23;18.23;;;;;;;;;;5013913;28;20040;-73
2023/09/26 05:10:22;;;;;;;28.38;20.00;;;;;;;;;;5013596;28;20504;-73
2023/09/26 05:12:48;;;;;;;27.52;19.27;;;;;;;;;;5013729;28;20109;-73
2023/09/26 05:15:16;;;;;;;27.95;19.08;;;;;;;;;;5014731;28;20022;-73
2023/09/26 05:17:42;;;;;;;25.17;18.98;;;;;;;;;;5013499;28;20022;-73
2023/09/26 05:20:12;;;;;;;26.63;19.30;;;;;;;;;;5013503;28;20014;-73
2023/09/26 05:22:42;;;;;;;26.52;19.23;;;;;;;;;;5011971;28;20064;-74
2023/09/26 05:25:09;;;;;;;25.80;18.88;;;;;;;;;;4995586;28;20064;-73
2023/09/26 05:27:36;;;;;;;26.48;19.25;;;;;;;;;;5013601;28;20073;-73
2023/09/26 05:30:03;;;;;;;25.15;18.42;;;;;;;;;;5013292;28;20029;-73
2023/09/26 05:32:29;;;;;;;25.98;19.65;;;;;;;;;;5013276;28;20022;-73
2023/09/26 05:34:55;;;;;;;26.83;19.45;;;;;;;;;;5013240;28;20071;-73
2023/09/26 05:37:21;;;;;;;29.52;20.17;;;;;;;;;;5013199;28;20370;-73
2023/09/26 05:39:47;;;;;;;26.42;19.58;;;;;;;;;;5013289;28;20407;-73
2023/09/26 05:42:13;;;;;;;27.20;20.08;;;;;;;;;;5013255;28;20033;-73
2023/09/26 05:44:39;;;;;;;27.83;20.20;;;;;;;;;;5013030;28;20421;-73
2023/09/26 05:47:05;;;;;;;29.48;20.50;;;;;;;;;;5013257;28;20033;-73
2023/09/26 05:49:31;;;;;;;27.02;20.10;;;;;;;;;;5012852;28;20369;-73
2023/09/26 05:51:58;;;;;;;27.65;19.52;;;;;;;;;;5012916;28;20030;-73
2023/09/26 05:54:24;;;;;;;26.48;20.70;;;;;;;;;;5012935;28;20030;-73
2023/09/26 05:56:50;;;;;;;25.90;19.80;;;;;;;;;;5012872;28;20406;-73
2023/09/26 05:59:16;;;;;;;28.73;20.70;;;;;;;;;;5013064;28;20068;-73
2023/09/26 06:01:42;;;;;;;26.48;20.15;;;;;;;;;;5012946;28;20034;-73
2023/09/26 06:04:08;;;;;;;26.25;19.10;;;;;;;;;;5012760;28;20095;-73
2023/09/26 06:06:34;;;;;;;29.13;19.80;;;;;;;;;;5012904;28;20030;-73
2023/09/26 06:09:00;;;;;;;26.25;19.65;;;;;;;;;;5012628;28;20101;-73
2023/09/26 06:11:26;;;;;;;24.95;19.00;;;;;;;;;;5012545;28;20036;-73
2023/09/26 06:13:55;;;;;;;27.40;19.02;;;;;;;;;;5012691;28;20022;-73
2023/09/26 06:16:21;;;;;;;26.23;18.88;;;;;;;;;;5012582;28;20030;-73
2023/09/26 06:18:47;;;;;;;24.77;19.35;;;;;;;;;;5012628;28;20027;-73
2023/09/26 06:21:14;;;;;;;26.75;19.77;;;;;;;;;;5012800;28;20366;-73
2023/09/26 06:23:40;;;;;;;24.92;19.20;;;;;;;;;;4991260;28;20054;-73
2023/09/26 06:26:07;;;;;;;22.45;18.92;;;;;;;;;;4992934;28;20018;-73
2023/09/26 06:28:33;;;;;;;24.45;19.35;;;;;;;;;;4992944;28;20062;-73
2023/09/26 06:31:09;;;;;;;25.10;18.58;;;;;;;;;;4992873;28;20343;-73
2023/09/26 06:33:36;;;;;;;24.60;19.02;;;;;;;;;;4992765;28;20018;-73
2023/09/26 06:36:13;;;;;;;24.23;18.95;;;;;;;;;;4993042;28;20074;-73
2023/09/26 06:38:39;;;;;;;24.50;18.42;;;;;;;;;;4992807;28;20022;-73
2023/09/26 06:41:08;;;;;;;24.08;18.55;;;;;;;;;;4993002;28;20022;-73
2023/09/26 06:43:36;;;;;;;23.10;17.53;;;;;;;;;;4993127;28;20022;-73
2023/09/26 06:46:06;;;;;;;22.65;18.73;;;;;;;;;;4993097;28;20019;-73
2023/09/26 06:48:34;;;;;;;22.35;18.10;;;;;;;;;;4992764;28;20361;-73
2023/09/26 06:51:00;;;;;;;22.67;18.83;;;;;;;;;;4993014;28;20545;-73
2023/09/26 06:53:26;;;;;;;23.08;18.77;;;;;;;;;;4992989;28;20465;-73
2023/09/26 06:55:59;;;;;;;20.98;17.42;;;;;;;;;;4992669;28;20030;-73
2023/09/26 06:58:25;;;;;;;22.63;16.70;;;;;;;;;;4992724;28;20034;-73
2023/09/26 07:00:51;;;;;;;22.30;19.15;;;;;;;;;;4992579;28;20029;-73
2023/09/26 07:03:18;;;;;;;20.10;16.45;;;;;;;;;;4992956;28;20032;-73
2023/09/26 07:05:44;;;;;;;20.85;17.17;;;;;;;;;;4991071;28;20032;-73
2023/09/26 07:08:12;;;;;;;23.27;18.15;;;;;;;;;;4992467;28;20023;-73
2023/09/26 07:10:38;;;;;;;21.58;17.27;;;;;;;;;;4992653;28;20078;-73
2023/09/26 07:13:05;;;;;;;21.73;17.45;;;;;;;;;;4992475;28;20045;-73
2023/09/26 07:15:32;;;;;;;18.98;16.52;;;;;;;;;;4992404;28;20026;-73
2023/09/26 07:17:59;;;;;;;21.02;16.90;;;;;;;;;;4993962;28;20019;-73
2023/09/26 07:20:25;;;;;;;20.63;17.15;;;;;;;;;;4996138;28;20097;-74
2023/09/26 07:22:51;;;;;;;21.15;17.05;;;;;;;;;;5000575;28;20057;-73
2023/09/26 07:25:17;;;;;;;21.67;17.05;;;;;;;;;;5015510;28;20549;-74
2023/09/26 07:27:43;;;;;;;21.02;16.90;;;;;;;;;;5015474;28;20022;-74
2023/09/26 07:30:09;;;;;;;21.15;17.15;;;;;;;;;;5015414;28;20457;-74
2023/09/26 07:32:35;;;;;;;21.90;16.08;;;;;;;;;;5015628;28;20117;-74
2023/09/26 07:35:02;;;;;;;19.38;16.40;;;;;;;;;;5005908;28;20031;-74
2023/09/26 07:37:28;;;;;;;21.92;17.00;;;;;;;;;;4995780;28;20138;-74
2023/09/26 07:39:54;;;;;;;18.92;16.42;;;;;;;;;;4998443;28;20508;-74
2023/09/26 07:42:20;;;;;;;22.25;16.52;;;;;;;;;;5015115;28;20114;-74
2023/09/26 07:44:46;;;;;;;17.58;14.85;;;;;;;;;;5015489;28;20030;-74
2023/09/26 07:47:12;;;;;;;17.95;14.95;;;;;;;;;;5015246;28;20030;-74
2023/09/26 07:49:40;;;;;;;18.73;14.95;;;;;;;;;;5014962;28;20109;-74
2023/09/26 07:52:06;;;;;;;16.10;14.40;;;;;;;;;;5015391;28;20026;-74
2023/09/26 07:54:32;;;;;;;16.33;14.50;;;;;;;;;;5015284;28;20494;-74
2023/09/26 07:56:59;;;;;;;18.83;14.95;;;;;;;;;;5014823;28;20469;-74
2023/09/26 07:59:24;;;;;;;18.77;15.52;;;;;;;;;;5015026;28;20052;-74
2023/09/26 08:01:51;;;;;;;19.25;15.48;;;;;;;;;;5014759;28;20454;-74
2023/09/26 08:04:17;;;;;;;16.50;14.43;;;;;;;;;;5007634;28;20030;-74
2023/09/26 08:06:45;;;;;;;17.30;15.05;;;;;;;;;;4988570;28;20033;-74
2023/09/26 08:09:11;;;;;;;20.90;14.77;;;;;;;;;;5006631;28;20026;-74
2023/09/26 08:11:38;;;;;;;18.65;14.98;;;;;;;;;;5003800;28;20041;-74
2023/09/26 08:14:04;;;;;;;17.15;14.60;;;;;;;;;;5012569;28;20465;-74
2023/09/26 08:16:30;;;;;;;16.63;14.07;;;;;;;;;;4995520;28;20026;-75
2023/09/26 08:18:57;;;;;;;15.23;13.32;;;;;;;;;;4999915;28;20022;-75
2023/09/26 08:21:25;;;;;;;14.55;12.15;;;;;;;;;;5014407;28;20435;-74
2023/09/26 08:23:51;;;;;;;15.50;13.02;;;;;;;;;;5013770;28;20100;-75
2023/09/26 08:26:17;;;;;;;13.35;11.77;;;;;;;;;;5014406;28;20022;-75
2023/09/26 08:28:43;;;;;;;13.23;11.70;;;;;;;;;;4998437;28;20030;-74
2023/09/26 08:31:14;;;;;;;12.90;11.43;;;;;;;;;;4994223;28;20030;-74
2023/09/26 08:33:40;;;;;;;12.77;11.50;;;;;;;;;;4994962;28;20018;-74
2023/09/26 08:36:26;;;;;;;12.55;11.25;;;;;;;;;;4994766;28;20472;-75
2023/09/26 08:38:53;;;;;;;12.93;11.55;;;;;;;;;;4994587;28;20362;-74
2023/09/26 08:41:19;;;;;;;12.45;11.07;;;;;;;;;;4994806;28;20041;-75
2023/09/26 08:43:46;;;;;;;13.18;11.25;;;;;;;;;;4994528;28;20030;-75
2023/09/26 08:46:12;;;;;;;13.30;11.30;;;;;;;;;;5011441;28;20025;-75
2023/09/26 08:48:39;;;;;;;13.07;11.68;;;;;;;;;;5013951;28;20480;-75
2023/09/26 08:51:05;;;;;;;13.13;11.82;;;;;;;;;;5014030;28;20026;-75
2023/09/26 08:53:31;;;;;;;12.20;11.02;;;;;;;;;;5013948;28;20100;-75
2023/09/26 08:55:58;;;;;;;14.48;10.88;;;;;;;;;;5013868;28;20017;-74
2023/09/26 08:58:25;;;;;;;13.13;11.27;;;;;;;;;;5013828;28;20029;-75
2023/09/26 09:00:51;;;;;;;12.50;11.20;;;;;;;;;;5013809;28;20026;-75
2023/09/26 09:03:17;;;;;;;13.82;12.43;;;;;;;;;;5013707;28;20038;-75
2023/09/26 09:05:44;;;;;;;13.07;11.32;;;;;;;;;;5013668;28;20105;-74
2023/09/26 09:08:17;;;;;;;13.63;11.98;;;;;;;;;;5013611;28;20025;-74
2023/09/26 09:10:53;;;;;;;16.00;12.48;;;;;;;;;;5013611;28;20472;-74
2023/09/26 09:13:29;;;;;;;14.07;12.13;;;;;;;;;;5013562;28;20416;-74
2023/09/26 09:16:10;;;;;;;15.23;13.10;;;;;;;;;;5013814;28;20041;-74
2023/09/26 09:18:41;;;;;;;14.38;11.98;;;;;;;;;;5013336;28;20096;-74
2023/09/26 09:21:27;;;;;;;17.63;13.60;;;;;;;;;;5013663;28;20356;-74
2023/09/26 09:23:53;;;;;;;18.63;13.25;;;;;;;;;;5013128;28;20469;-74
2023/09/26 09:26:20;;;;;;;15.45;13.38;;;;;;;;;;5013458;28;20024;-74
2023/09/26 09:28:46;;;;;;;19.05;12.73;;;;;;;;;;5013710;28;20033;-74
2023/09/26 09:31:13;;;;;;;14.80;11.70;;;;;;;;;;5013218;28;20342;-74
2023/09/26 09:33:40;;;;;;;12.70;11.18;;;;;;;;;;5013228;28;20018;-74
2023/09/26 09:36:06;;;;;;;17.27;11.48;;;;;;;;;;4995379;28;20524;-74
2023/09/26 09:38:32;;;;;;;14.07;12.50;;;;;;;;;;5013151;28;20036;-74
2023/09/26 09:40:58;;;;;;;13.70;12.30;;;;;;;;;;5012682;28;20046;-74
2023/09/26 09:43:25;;;;;;;19.10;12.63;;;;;;;;;;5012932;28;20108;-74
2023/09/26 09:45:53;;;;;;;13.75;11.38;;;;;;;;;;5013301;28;20057;-74
2023/09/26 09:48:22;;;;;;;13.05;11.63;;;;;;;;;;5013226;28;20091;-74
2023/09/26 09:50:50;;;;;;;12.47;11.17;;;;;;;;;;5012859;28;20026;-74
2023/09/26 09:53:18;;;;;;;14.55;12.30;;;;;;;;;;5013000;28;20034;-74
2023/09/26 09:55:47;;;;;;;12.75;11.48;;;;;;;;;;5012291;28;20038;-74
2023/09/26 09:58:13;;;;;;;13.40;11.93;;;;;;;;;;5012762;28;20030;-74
2023/09/26 10:00:43;;;;;;;14.35;12.05;;;;;;;;;;5012732;28;20026;-74
2023/09/26 10:03:11;;;;;;;14.00;11.35;;;;;;;;;;5011719;28;20038;-74
2023/09/26 10:05:38;;;;;;;13.52;11.35;;;;;;;;;;5012777;28;20417;-74
2023/09/26 10:08:06;;;;;;;13.15;11.32;;;;;;;;;;5012772;28;20021;-74
2023/09/26 10:10:33;;;;;;;12.98;11.55;;;;;;;;;;5012915;28;20032;-74
2023/09/26 10:12:59;;;;;;;12.75;11.45;;;;;;;;;;4995021;28;20559;-74
2023/09/26 10:15:25;;;;;;;13.77;11.65;;;;;;;;;;5012387;28;20463;-74
2023/09/26 10:17:51;;;;;;;13.30;11.57;;;;;;;;;;5012635;28;20032;-74
2023/09/26 10:20:17;;;;;;;12.05;10.75;;;;;;;;;;5012594;28;20420;-74
2023/09/26 10:22:44;;;;;;;11.05;9.85;;;;;;;;;;5011156;28;20054;-74
2023/09/26 10:25:24;;;;;;;13.77;11.18;;;;;;;;;;5012681;28;20131;-74
2023/09/26 10:27:51;;;;;;;12.25;10.95;;;;;;;;;;5012513;28;20022;-74
2023/09/26 10:30:20;;;;;;;12.45;10.73;;;;;;;;;;5012780;28;20026;-74
2023/09/26 10:32:46;;;;;;;11.43;9.68;;;;;;;;;;5012476;28;20636;-74
2023/09/26 10:35:15;;;;;;;12.57;10.65;;;;;;;;;;5012412;28;20037;-74
2023/09/26 10:37:45;;;;;;;14.93;11.40;;;;;;;;;;5012454;28;20025;-74
2023/09/26 10:40:11;;;;;;;12.38;10.88;;;;;;;;;;5012425;28;20037;-74
2023/09/26 10:42:40;;;;;;;11.10;10.00;;;;;;;;;;5012320;28;20049;-74
2023/09/26 10:45:06;;;;;;;13.80;10.40;;;;;;;;;;5012405;28;20041;-74
2023/09/26 10:47:36;;;;;;;11.48;10.15;;;;;;;;;;5011572;28;20399;-75
2023/09/26 10:50:03;;;;;;;12.93;9.50;;;;;;;;;;5012525;28;20029;-75
2023/09/26 10:52:30;;;;;;;10.80;9.73;;;;;;;;;;5012752;28;20033;-75
2023/09/26 10:54:56;;;;;;;11.05;9.18;;;;;;;;;;5016127;28;20130;-75
2023/09/26 10:57:22;;;;;;;11.75;9.38;;;;;;;;;;5016085;28;20436;-75
2023/09/26 10:59:51;;;;;;;12.18;9.50;;;;;;;;;;5016178;28;20172;-75
2023/09/26 11:02:17;;;;;;;9.63;8.60;;;;;;;;;;5015816;28;20018;-75
2023/09/26 11:04:43;;;;;;;10.00;8.90;;;;;;;;;;5015972;28;20065;-75
2023/09/26 11:07:10;;;;;;;10.27;8.32;;;;;;;;;;5015826;28;20033;-75
2023/09/26 11:09:40;;;;;;;11.38;8.43;;;;;;;;;;5015849;28;20057;-75
2023/09/26 11:12:06;;;;;;;11.70;8.02;;;;;;;;;;4998237;28;20041;-75
2023/09/26 11:14:32;;;;;;;10.23;8.70;;;;;;;;;;5015726;28;20377;-75
2023/09/26 11:16:58;;;;;;;9.63;7.57;;;;;;;;;;5015745;28;20034;-75
2023/09/26 11:19:26;;;;;;;8.07;7.22;;;;;;;;;;5015701;28;20424;-75
2023/09/26 11:21:54;;;;;;;10.63;8.43;;;;;;;;;;5015623;28;20030;-75
2023/09/26 11:24:30;;;;;;;8.45;6.78;;;;;;;;;;5014663;28;20073;-75
2023/09/26 11:26:57;;;;;;;7.32;5.53;;;;;;;;;;5015856;28;20041;-75
2023/09/26 11:29:24;;;;;;;6.72;5.63;;;;;;;;;;5015554;28;20033;-75
2023/09/26 11:31:52;;;;;;;7.75;6.05;;;;;;;;;;5015517;28;20026;-75
2023/09/26 11:34:18;;;;;;;9.65;6.90;;;;;;;;;;5015561;28;20034;-75
2023/09/26 11:36:44;;;;;;;9.98;7.43;;;;;;;;;;5015504;28;20338;-75
2023/09/26 11:39:20;;;;;;;11.85;8.75;;;;;;;;;;5015362;28;20040;-75
2023/09/26 11:41:47;;;;;;;10.20;7.75;;;;;;;;;;5015249;28;20049;-75
2023/09/26 11:44:14;;;;;;;12.98;8.63;;;;;;;;;;5015267;28;20068;-75
2023/09/26 11:46:47;;;;;;;11.00;8.27;;;;;;;;;;4997691;28;20025;-75
2023/09/26 11:49:13;;;;;;;12.75;9.32;;;;;;;;;;5015133;28;20021;-75
2023/09/26 11:51:40;;;;;;;15.80;11.45;;;;;;;;;;5015091;28;20249;-75
2023/09/26 11:54:06;;;;;;;17.40;11.48;;;;;;;;;;5015052;28;20520;-75
2023/09/26 11:56:33;;;;;;;19.60;12.90;;;;;;;;;;5015062;28;20032;-75
2023/09/26 11:59:00;;;;;;;19.90;13.15;;;;;;;;;;5015091;28;20097;-75
2023/09/26 12:01:26;;;;;;;18.48;12.43;;;;;;;;;;5014789;28;20061;-75
2023/09/26 12:03:52;;;;;;;16.67;10.95;;;;;;;;;;5014636;28;20026;-75
2023/09/26 12:06:18;;;;;;;17.83;11.25;;;;;;;;;;5011441;28;20027;-75
2023/09/26 12:08:44;;;;;;;18.63;11.95;;;;;;;;;;4995273;28;20381;-75
2023/09/26 12:11:11;;;;;;;18.88;12.57;;;;;;;;;;4995482;28;20033;-75
2023/09/26 12:13:37;;;;;;;19.60;11.95;;;;;;;;;;4995185;28;20469;-75
2023/09/26 12:16:03;;;;;;;18.25;11.90;;;;;;;;;;4995211;28;20053;-75
2023/09/26 12:18:29;;;;;;;13.43;9.82;;;;;;;;;;4995249;28;20034;-75
2023/09/26 12:20:56;;;;;;;10.48;9.38;;;;;;;;;;4995334;28;20022;-75
2023/09/26 12:23:23;;;;;;;12.85;8.57;;;;;;;;;;4993667;28;20050;-76
2023/09/26 12:25:49;;;;;;;13.10;9.05;;;;;;;;;;4995137;28;20046;-75
2023/09/26 12:28:18;;;;;;;12.63;9.68;;;;;;;;;;4995062;28;20018;-75
2023/09/26 12:30:44;;;;;;;11.35;9.50;;;;;;;;;;4994907;28;20084;-75
2023/09/26 12:33:10;;;;;;;13.43;9.98;;;;;;;;;;4994853;28;20053;-75
2023/09/26 12:35:36;;;;;;;11.55;10.10;;;;;;;;;;4994657;28;20098;-75
2023/09/26 12:38:02;;;;;;;12.10;9.82;;;;;;;;;;4994822;28;20027;-75
2023/09/26 12:40:28;;;;;;;13.43;9.95;;;;;;;;;;4994850;28;20030;-75
2023/09/26 12:42:54;;;;;;;12.30;10.63;;;;;;;;;;4994636;28;20126;-75
2023/09/26 12:45:21;;;;;;;12.93;10.10;;;;;;;;;;4994766;28;20034;-75
2023/09/26 12:47:47;;;;;;;11.80;9.10;;;;;;;;;;5011628;28;20052;-75
2023/09/26 12:50:13;;;;;;;10.50;9.38;;;;;;;;;;5014151;28;20030;-75
2023/09/26 12:52:40;;;;;;;10.20;8.07;;;;;;;;;;5014118;28;20033;-76
2023/09/26 12:55:06;;;;;;;12.38;9.30;;;;;;;;;;5014018;28;20159;-76
2023/09/26 12:57:33;;;;;;;12.65;9.48;;;;;;;;;;5013957;28;20054;-75
2023/09/26 12:59:59;;;;;;;8.23;7.28;;;;;;;;;;5014172;28;20018;-75
2023/09/26 13:02:25;;;;;;;9.40;7.03;;;;;;;;;;5013769;28;20350;-75
2023/09/26 13:04:55;;;;;;;9.35;6.85;;;;;;;;;;5013709;28;20026;-76
2023/09/26 13:07:21;;;;;;;;;;;;;;;;;;5014388;28;20107;-76
2023/09/26 13:09:47;;;;;;;10.45;8.05;;;;;;;;;;5013976;28;19945;-76
2023/09/26 13:12:14;;;;;;;6.93;6.18;;;;;;;;;;5013931;28;20486;-76
2023/09/26 13:14:40;;;;;;;6.88;6.07;;;;;;;;;;5013825;28;20033;-76
2023/09/26 13:17:07;;;;;;;8.10;6.63;;;;;;;;;;5013529;28;20053;-76
2023/09/26 13:19:33;;;;;;;10.10;7.38;;;;;;;;;;5013625;28;20507;-76
2023/09/26 13:21:59;;;;;;;8.25;6.50;;;;;;;;;;5013508;28;20065;-76
2023/09/26 13:24:25;;;;;;;7.50;6.75;;;;;;;;;;5012257;28;20747;-76
2023/09/26 13:26:51;;;;;;;8.57;6.57;;;;;;;;;;5013581;28;20060;-75
2023/09/26 13:29:17;;;;;;;7.43;6.65;;;;;;;;;;5013805;28;20034;-75
2023/09/26 13:31:46;;;;;;;8.57;6.60;;;;;;;;;;5013490;28;20025;-75
2023/09/26 13:34:12;;;;;;;9.18;7.10;;;;;;;;;;5013744;28;20044;-75
2023/09/26 13:36:39;;;;;;;11.70;7.38;;;;;;;;;;5013453;28;20021;-75
2023/09/26 13:39:06;;;;;;;9.57;7.65;;;;;;;;;;5013326;28;20034;-75
2023/09/26 13:41:32;;;;;;;9.05;7.28;;;;;;;;;;5013174;28;20551;-75
2023/09/26 13:43:58;;;;;;;12.10;8.48;;;;;;;;;;5013278;28;20454;-75
2023/09/26 13:46:24;;;;;;;9.00;7.97;;;;;;;;;;5013104;28;20033;-76
2023/09/26 13:48:50;;;;;;;8.38;7.25;;;;;;;;;;5013247;28;20030;-75
2023/09/26 13:51:16;;;;;;;9.32;7.60;;;;;;;;;;5013188;28;20033;-75
2023/09/26 13:53:42;;;;;;;8.10;7.18;;;;;;;;;;5012147;28;20030;-75
2023/09/26 13:56:08;;;;;;;10.80;6.38;;;;;;;;;;5012461;28;20377;-75
2023/09/26 13:58:34;;;;;;;8.30;6.70;;;;;;;;;;5013258;28;20468;-75
2023/09/26 14:01:04;;;;;;;9.48;6.95;;;;;;;;;;5012873;28;20025;-75
2023/09/26 14:03:37;;;;;;;8.75;6.45;;;;;;;;;;5012892;28;20416;-75
2023/09/26 14:06:03;;;;;;;9.77;7.20;;;;;;;;;;5012783;28;20099;-75
2023/09/26 14:08:29;;;;;;;10.85;8.13;;;;;;;;;;5012784;28;20413;-75
2023/09/26 14:10:55;;;;;;;10.52;8.48;;;;;;;;;;5012850;28;20499;-75
2023/09/26 14:13:24;;;;;;;10.95;8.27;;;;;;;;;;5013107;28;20034;-75
2023/09/26 14:15:51;;;;;;;8.00;6.50;;;;;;;;;;5013056;28;20109;-75
2023/09/26 14:18:17;;;;;;;6.75;6.05;;;;;;;;;;5012704;28;20037;-75
2023/09/26 14:20:46;;;;;;;8.43;6.57;;;;;;;;;;5013401;28;20069;-75